sensor_id;sensor_type;location;lat;lon;timestamp;P1;durP1;ratioP1;P2;durP2;ratioP2
3271;SDS011;1648;50.022;8.424;2024-02-21T00:03:21;16.30;;;5.93;;
3271;SDS011;1648;50.022;8.424;2024-02-21T00:18:26;14.00;;;5.50;;
3271;SDS011;1648;50.022;8.424;2024-02-21T00:33:50;17.40;;;6.43;;
3271;SDS011;1648;50.022;8.424;2024-02-21T00:48:56;20.20;;;6.23;;
3271;SDS011;1648;50.022;8.424;2024-02-21T01:04:00;15.87;;;6.90;;
3271;SDS011;1648;50.022;8.424;2024-02-21T01:19:19;15.07;;;5.53;;
3271;SDS011;1648;50.022;8.424;2024-02-21T01:34:23;12.03;;;6.13;;
3271;SDS011;1648;50.022;8.424;2024-02-21T01:49:35;16.03;;;6.40;;
3271;SDS011;1648;50.022;8.424;2024-02-21T02:04:41;20.30;;;7.03;;
3271;SDS011;1648;50.022;8.424;2024-02-21T02:19:49;14.70;;;5.30;;
3271;SDS011;1648;50.022;8.424;2024-02-21T02:34:54;22.23;;;5.80;;
3271;SDS011;1648;50.022;8.424;2024-02-21T02:49:58;14.87;;;6.27;;
3271;SDS011;1648;50.022;8.424;2024-02-21T03:05:02;12.33;;;5.40;;
3271;SDS011;1648;50.022;8.424;2024-02-21T03:20:16;24.33;;;8.03;;
3271;SDS011;1648;50.022;8.424;2024-02-21T03:35:21;20.27;;;7.30;;
3271;SDS011;1648;50.022;8.424;2024-02-21T03:50:24;13.33;;;6.83;;
3271;SDS011;1648;50.022;8.424;2024-02-21T04:05:29;17.10;;;7.70;;
3271;SDS011;1648;50.022;8.424;2024-02-21T04:20:34;17.10;;;7.70;;
3271;SDS011;1648;50.022;8.424;2024-02-21T04:35:40;15.07;;;8.50;;
3271;SDS011;1648;50.022;8.424;2024-02-21T04:50:45;21.30;;;7.90;;
3271;SDS011;1648;50.022;8.424;2024-02-21T05:05:50;19.40;;;7.80;;
3271;SDS011;1648;50.022;8.424;2024-02-21T05:20:55;15.33;;;7.67;;
3271;SDS011;1648;50.022;8.424;2024-02-21T05:35:59;14.17;;;6.63;;
3271;SDS011;1648;50.022;8.424;2024-02-21T05:51:07;17.97;;;8.53;;
3271;SDS011;1648;50.022;8.424;2024-02-21T06:06:12;17.50;;;8.70;;
3271;SDS011;1648;50.022;8.424;2024-02-21T06:21:17;17.83;;;8.77;;
3271;SDS011;1648;50.022;8.424;2024-02-21T06:36:21;18.87;;;8.80;;
3271;SDS011;1648;50.022;8.424;2024-02-21T06:51:35;22.63;;;9.00;;
3271;SDS011;1648;50.022;8.424;2024-02-21T07:06:42;23.03;;;10.70;;
3271;SDS011;1648;50.022;8.424;2024-02-21T07:21:47;15.83;;;6.97;;
3271;SDS011;1648;50.022;8.424;2024-02-21T07:36:50;17.53;;;7.20;;
3271;SDS011;1648;50.022;8.424;2024-02-21T07:51:56;17.00;;;7.40;;
3271;SDS011;1648;50.022;8.424;2024-02-21T08:07:00;13.70;;;9.53;;
3271;SDS011;1648;50.022;8.424;2024-02-21T08:22:04;11.70;;;5.37;;
3271;SDS011;1648;50.022;8.424;2024-02-21T08:37:07;15.53;;;5.87;;
3271;SDS011;1648;50.022;8.424;2024-02-21T08:52:11;12.57;;;5.00;;
3271;SDS011;1648;50.022;8.424;2024-02-21T09:07:17;8.40;;;3.80;;
3271;SDS011;1648;50.022;8.424;2024-02-21T09:22:21;12.77;;;4.53;;
3271;SDS011;1648;50.022;8.424;2024-02-21T09:37:24;12.00;;;6.00;;
3271;SDS011;1648;50.022;8.424;2024-02-21T09:52:28;7.60;;;4.00;;
3271;SDS011;1648;50.022;8.424;2024-02-21T10:07:32;10.37;;;3.90;;
3271;SDS011;1648;50.022;8.424;2024-02-21T10:22:35;8.20;;;4.50;;
3271;SDS011;1648;50.022;8.424;2024-02-21T10:37:39;8.97;;;5.30;;
3271;SDS011;1648;50.022;8.424;2024-02-21T10:52:44;8.60;;;4.53;;
3271;SDS011;1648;50.022;8.424;2024-02-21T11:07:52;9.50;;;4.93;;
3271;SDS011;1648;50.022;8.424;2024-02-21T11:22:55;10.70;;;4.47;;
3271;SDS011;1648;50.022;8.424;2024-02-21T11:38:09;10.83;;;4.13;;
3271;SDS011;1648;50.022;8.424;2024-02-21T11:53:14;8.73;;;3.80;;
3271;SDS011;1648;50.022;8.424;2024-02-21T12:08:18;10.10;;;4.13;;
3271;SDS011;1648;50.022;8.424;2024-02-21T12:23:22;13.47;;;5.33;;
3271;SDS011;1648;50.022;8.424;2024-02-21T12:38:26;10.50;;;5.40;;
3271;SDS011;1648;50.022;8.424;2024-02-21T12:53:36;6.97;;;4.10;;
3271;SDS011;1648;50.022;8.424;2024-02-21T13:08:40;12.47;;;3.63;;
3271;SDS011;1648;50.022;8.424;2024-02-21T13:23:44;5.83;;;2.90;;
3271;SDS011;1648;50.022;8.424;2024-02-21T13:38:49;21.90;;;3.50;;
3271;SDS011;1648;50.022;8.424;2024-02-21T13:54:00;6.73;;;3.60;;
3271;SDS011;1648;50.022;8.424;2024-02-21T14:09:05;8.80;;;4.77;;
3271;SDS011;1648;50.022;8.424;2024-02-21T14:24:10;12.30;;;4.40;;
3271;SDS011;1648;50.022;8.424;2024-02-21T14:39:14;20.40;;;7.00;;
3271;SDS011;1648;50.022;8.424;2024-02-21T14:54:17;19.17;;;5.83;;
3271;SDS011;1648;50.022;8.424;2024-02-21T15:09:21;12.53;;;5.50;;
3271;SDS011;1648;50.022;8.424;2024-02-21T15:24:25;11.90;;;6.90;;
3271;SDS011;1648;50.022;8.424;2024-02-21T15:39:28;12.97;;;5.53;;
3271;SDS011;1648;50.022;8.424;2024-02-21T15:54:37;19.27;;;6.10;;
3271;SDS011;1648;50.022;8.424;2024-02-21T16:09:41;14.33;;;4.57;;
3271;SDS011;1648;50.022;8.424;2024-02-21T16:24:44;23.10;;;5.13;;
3271;SDS011;1648;50.022;8.424;2024-02-21T16:39:48;9.43;;;3.90;;
3271;SDS011;1648;50.022;8.424;2024-02-21T16:54:52;11.30;;;4.10;;
3271;SDS011;1648;50.022;8.424;2024-02-21T17:09:55;9.10;;;4.60;;
3271;SDS011;1648;50.022;8.424;2024-02-21T17:24:59;12.47;;;4.67;;
3271;SDS011;1648;50.022;8.424;2024-02-21T17:40:04;11.10;;;3.53;;
3271;SDS011;1648;50.022;8.424;2024-02-21T17:55:09;7.10;;;4.40;;
3271;SDS011;1648;50.022;8.424;2024-02-21T18:10:14;9.07;;;4.77;;
3271;SDS011;1648;50.022;8.424;2024-02-21T18:25:17;8.23;;;4.33;;
3271;SDS011;1648;50.022;8.424;2024-02-21T18:40:21;7.60;;;3.40;;
3271;SDS011;1648;50.022;8.424;2024-02-21T18:55:24;8.27;;;3.80;;
3271;SDS011;1648;50.022;8.424;2024-02-21T19:10:28;8.93;;;4.30;;
3271;SDS011;1648;50.022;8.424;2024-02-21T19:25:31;10.90;;;4.73;;
3271;SDS011;1648;50.022;8.424;2024-02-21T19:40:35;9.77;;;5.27;;
3271;SDS011;1648;50.022;8.424;2024-02-21T19:55:39;14.40;;;7.70;;
3271;SDS011;1648;50.022;8.424;2024-02-21T20:10:42;11.13;;;5.40;;
3271;SDS011;1648;50.022;8.424;2024-02-21T20:25:46;12.83;;;4.97;;
3271;SDS011;1648;50.022;8.424;2024-02-21T20:40:49;17.23;;;7.70;;
3271;SDS011;1648;50.022;8.424;2024-02-21T20:55:52;11.60;;;5.80;;
3271;SDS011;1648;50.022;8.424;2024-02-21T21:10:57;18.77;;;8.87;;
3271;SDS011;1648;50.022;8.424;2024-02-21T21:26:01;8.53;;;4.93;;
3271;SDS011;1648;50.022;8.424;2024-02-21T21:41:04;6.63;;;4.47;;
3271;SDS011;1648;50.022;8.424;2024-02-21T21:56:07;8.93;;;5.50;;
3271;SDS011;1648;50.022;8.424;2024-02-21T22:11:11;3.20;;;2.90;;
3271;SDS011;1648;50.022;8.424;2024-02-21T22:26:15;4.20;;;2.70;;
3271;SDS011;1648;50.022;8.424;2024-02-21T22:41:19;4.20;;;1.90;;
3271;SDS011;1648;50.022;8.424;2024-02-21T22:56:23;4.13;;;2.57;;
3271;SDS011;1648;50.022;8.424;2024-02-21T23:11:26;4.70;;;2.63;;
3271;SDS011;1648;50.022;8.424;2024-02-21T23:26:30;3.47;;;2.97;;
3271;SDS011;1648;50.022;8.424;2024-02-21T23:41:33;3.00;;;2.73;;
3271;SDS011;1648;50.022;8.424;2024-02-21T23:56:41;2.63;;;2.43;;
